Aviation Digital Data Service (ADDS)

Output produced by METARs form (0423 UTC 19 August 2019)
found at http://www.aviationweather.gov/metar/data/
 
METAR text: LEBZ 181900Z 30013KT CAVOK 30/17 Q1013
Conditions at: LEBZ (TALAVERA AB/BADA, ES) observed 1900 UTC 18 August 2019
Temperature: 30.0°C (86°F)
Dewpoint: 17.0°C (63°F) [RH = 46%]
Pressure (altimeter): 29.91 inches Hg (1013.0 mb)
Winds: from the WNW (300 degrees) at 15 MPH (13 knots; 6.7 m/s)
Visibility: 6 or more miles (10+ km)
Ceiling: ceiling and visibility are OK
Clouds: unknown
Weather: no significant weather observed at this time

METAR text: LEBZ 181800Z 27012KT CAVOK 32/15 Q1013
Conditions at: LEBZ (TALAVERA AB/BADA, ES) observed 1800 UTC 18 August 2019
Temperature: 32.0°C (90°F)
Dewpoint: 15.0°C (59°F) [RH = 36%]
Pressure (altimeter): 29.91 inches Hg (1013.0 mb)
Winds: from the W (270 degrees) at 14 MPH (12 knots; 6.2 m/s)
Visibility: 6 or more miles (10+ km)
Ceiling: ceiling and visibility are OK
Clouds: unknown
Weather: no significant weather observed at this time

METAR text: LEBZ 181700Z 28012KT 240V310 CAVOK 33/14 Q1013
Conditions at: LEBZ (TALAVERA AB/BADA, ES) observed 1700 UTC 18 August 2019
Temperature: 33.0°C (91°F)
Dewpoint: 14.0°C (57°F) [RH = 32%]
Pressure (altimeter): 29.91 inches Hg (1013.0 mb)
Winds: from the W (280 degrees) at 14 MPH (12 knots; 6.2 m/s)
Visibility: 6 or more miles (10+ km)
Ceiling: ceiling and visibility are OK
Clouds: unknown
Weather: no significant weather observed at this time

METAR text: LEBZ 181600Z 29012KT 240V330 CAVOK 33/15 Q1013
Conditions at: LEBZ (TALAVERA AB/BADA, ES) observed 1600 UTC 18 August 2019
Temperature: 33.0°C (91°F)
Dewpoint: 15.0°C (59°F) [RH = 34%]
Pressure (altimeter): 29.91 inches Hg (1013.0 mb)
Winds: from the WNW (290 degrees) at 14 MPH (12 knots; 6.2 m/s)
Visibility: 6 or more miles (10+ km)
Ceiling: ceiling and visibility are OK
Clouds: unknown
Weather: no significant weather observed at this time

METAR text: LEBZ 181500Z 28013KT CAVOK 33/13 Q1014
Conditions at: LEBZ (TALAVERA AB/BADA, ES) observed 1500 UTC 18 August 2019
Temperature: 33.0°C (91°F)
Dewpoint: 13.0°C (55°F) [RH = 30%]
Pressure (altimeter): 29.94 inches Hg (1014.0 mb)
Winds: from the W (280 degrees) at 15 MPH (13 knots; 6.7 m/s)
Visibility: 6 or more miles (10+ km)
Ceiling: ceiling and visibility are OK
Clouds: unknown
Weather: no significant weather observed at this time

METAR text: LEBZ 181400Z 27013KT 230V310 CAVOK 33/13 Q1014
Conditions at: LEBZ (TALAVERA AB/BADA, ES) observed 1400 UTC 18 August 2019
Temperature: 33.0°C (91°F)
Dewpoint: 13.0°C (55°F) [RH = 30%]
Pressure (altimeter): 29.94 inches Hg (1014.0 mb)
Winds: from the W (270 degrees) at 15 MPH (13 knots; 6.7 m/s)
Visibility: 6 or more miles (10+ km)
Ceiling: ceiling and visibility are OK
Clouds: unknown
Weather: no significant weather observed at this time

METAR text: LEBZ 181300Z 26011KT 230V300 CAVOK 32/15 Q1014
Conditions at: LEBZ (TALAVERA AB/BADA, ES) observed 1300 UTC 18 August 2019
Temperature: 32.0°C (90°F)
Dewpoint: 15.0°C (59°F) [RH = 36%]
Pressure (altimeter): 29.94 inches Hg (1014.0 mb)
Winds: from the W (260 degrees) at 13 MPH (11 knots; 5.7 m/s)
Visibility: 6 or more miles (10+ km)
Ceiling: ceiling and visibility are OK
Clouds: unknown
Weather: no significant weather observed at this time

METAR text: LEBZ 181200Z 26011KT 230V290 CAVOK 30/15 Q1015
Conditions at: LEBZ (TALAVERA AB/BADA, ES) observed 1200 UTC 18 August 2019
Temperature: 30.0°C (86°F)
Dewpoint: 15.0°C (59°F) [RH = 40%]
Pressure (altimeter): 29.97 inches Hg (1015.0 mb)
Winds: from the W (260 degrees) at 13 MPH (11 knots; 5.7 m/s)
Visibility: 6 or more miles (10+ km)
Ceiling: ceiling and visibility are OK
Clouds: unknown
Weather: no significant weather observed at this time

METAR text: LEBZ 181100Z 27008KT 240V310 CAVOK 28/15 Q1015
Conditions at: LEBZ (TALAVERA AB/BADA, ES) observed 1100 UTC 18 August 2019
Temperature: 28.0°C (82°F)
Dewpoint: 15.0°C (59°F) [RH = 45%]
Pressure (altimeter): 29.97 inches Hg (1015.0 mb)
Winds: from the W (270 degrees) at 9 MPH (8 knots; 4.1 m/s)
Visibility: 6 or more miles (10+ km)
Ceiling: ceiling and visibility are OK
Clouds: unknown
Weather: no significant weather observed at this time

METAR text: LEBZ 181000Z 27009KT 220V310 CAVOK 26/16 Q1015
Conditions at: LEBZ (TALAVERA AB/BADA, ES) observed 1000 UTC 18 August 2019
Temperature: 26.0°C (79°F)
Dewpoint: 16.0°C (61°F) [RH = 54%]
Pressure (altimeter): 29.97 inches Hg (1015.0 mb)
Winds: from the W (270 degrees) at 10 MPH (9 knots; 4.6 m/s)
Visibility: 6 or more miles (10+ km)
Ceiling: ceiling and visibility are OK
Clouds: unknown
Weather: no significant weather observed at this time

METAR text: LEBZ 180900Z 26007KT 210V010 CAVOK 23/17 Q1015
Conditions at: LEBZ (TALAVERA AB/BADA, ES) observed 0900 UTC 18 August 2019
Temperature: 23.0°C (73°F)
Dewpoint: 17.0°C (63°F) [RH = 69%]
Pressure (altimeter): 29.97 inches Hg (1015.0 mb)
Winds: from the W (260 degrees) at 8 MPH (7 knots; 3.6 m/s)
Visibility: 6 or more miles (10+ km)
Ceiling: ceiling and visibility are OK
Clouds: unknown
Weather: no significant weather observed at this time

METAR text: LEBZ 180800Z 27007KT 240V300 9999 FEW009 20/17 Q1015
Conditions at: LEBZ (TALAVERA AB/BADA, ES) observed 0800 UTC 18 August 2019
Temperature: 20.0°C (68°F)
Dewpoint: 17.0°C (63°F) [RH = 83%]
Pressure (altimeter): 29.97 inches Hg (1015.0 mb)
Winds: from the W (270 degrees) at 8 MPH (7 knots; 3.6 m/s)
Visibility: 6 or more miles (10+ km)
Ceiling: at least 12,000 feet AGL
Clouds: few clouds at 900 feet AGL
Weather: no significant weather observed at this time

METAR text: LEBZ 180739Z 27008KT 240V310 9999 SCT009 20/16 Q1015
Conditions at: LEBZ (TALAVERA AB/BADA, ES) observed 0739 UTC 18 August 2019
Temperature: 20.0°C (68°F)
Dewpoint: 16.0°C (61°F) [RH = 78%]
Pressure (altimeter): 29.97 inches Hg (1015.0 mb)
Winds: from the W (270 degrees) at 9 MPH (8 knots; 4.1 m/s)
Visibility: 6 or more miles (10+ km)
Ceiling: at least 12,000 feet AGL
Clouds: scattered clouds at 900 feet AGL
Weather: no significant weather observed at this time

METAR text: LEBZ 180714Z 25004KT 210V290 9999 BKN009 19/17 Q1015
Conditions at: LEBZ (TALAVERA AB/BADA, ES) observed 0714 UTC 18 August 2019
Temperature: 19.0°C (66°F)
Dewpoint: 17.0°C (63°F) [RH = 88%]
Pressure (altimeter): 29.97 inches Hg (1015.0 mb)
Winds: from the WSW (250 degrees) at 5 MPH (4 knots; 2.1 m/s)
Visibility: 6 or more miles (10+ km)
Ceiling: 900 feet AGL
Clouds: broken clouds at 900 feet AGL
Weather: no significant weather observed at this time

METAR text: LEBZ 180700Z 23004KT 9999 FEW008 18/16 Q1014
Conditions at: LEBZ (TALAVERA AB/BADA, ES) observed 0700 UTC 18 August 2019
Temperature: 18.0°C (64°F)
Dewpoint: 16.0°C (61°F) [RH = 88%]
Pressure (altimeter): 29.94 inches Hg (1014.0 mb)
Winds: from the SW (230 degrees) at 5 MPH (4 knots; 2.1 m/s)
Visibility: 6 or more miles (10+ km)
Ceiling: at least 12,000 feet AGL
Clouds: few clouds at 800 feet AGL
Weather: no significant weather observed at this time

METAR text: LEBZ 180600Z 23006KT 9999 SCT008 17/16 Q1014
Conditions at: LEBZ (TALAVERA AB/BADA, ES) observed 0600 UTC 18 August 2019
Temperature: 17.0°C (63°F)
Dewpoint: 16.0°C (61°F) [RH = 94%]
Pressure (altimeter): 29.94 inches Hg (1014.0 mb)
Winds: from the SW (230 degrees) at 7 MPH (6 knots; 3.1 m/s)
Visibility: 6 or more miles (10+ km)
Ceiling: at least 12,000 feet AGL
Clouds: scattered clouds at 800 feet AGL
Weather: no significant weather observed at this time

METAR text: LEBZ 180500Z 25003KT 9999 FEW015 17/15 Q1014
Conditions at: LEBZ (TALAVERA AB/BADA, ES) observed 0500 UTC 18 August 2019
Temperature: 17.0°C (63°F)
Dewpoint: 15.0°C (59°F) [RH = 88%]
Pressure (altimeter): 29.94 inches Hg (1014.0 mb)
Winds: from the WSW (250 degrees) at 3 MPH (3 knots; 1.5 m/s)
Visibility: 6 or more miles (10+ km)
Ceiling: at least 12,000 feet AGL
Clouds: few clouds at 1500 feet AGL
Weather: no significant weather observed at this time

METAR text: LEBZ 171900Z 27008KT CAVOK 33/09 Q1011
Conditions at: LEBZ (TALAVERA AB/BADA, ES) observed 1900 UTC 17 August 2019
Temperature: 33.0°C (91°F)
Dewpoint: 9.0°C (48°F) [RH = 23%]
Pressure (altimeter): 29.85 inches Hg (1011.0 mb)
Winds: from the W (270 degrees) at 9 MPH (8 knots; 4.1 m/s)
Visibility: 6 or more miles (10+ km)
Ceiling: ceiling and visibility are OK
Clouds: unknown
Weather: no significant weather observed at this time

METAR text: LEBZ 171800Z 22007KT 190V270 CAVOK 37/04 Q1011
Conditions at: LEBZ (TALAVERA AB/BADA, ES) observed 1800 UTC 17 August 2019
Temperature: 37.0°C (99°F)
Dewpoint: 4.0°C (39°F) [RH = 13%]
Pressure (altimeter): 29.85 inches Hg (1011.0 mb)
Winds: from the SW (220 degrees) at 8 MPH (7 knots; 3.6 m/s)
Visibility: 6 or more miles (10+ km)
Ceiling: ceiling and visibility are OK
Clouds: unknown
Weather: no significant weather observed at this time

METAR text: LEBZ 171700Z 23008KT 190V280 CAVOK 37/01 Q1012
Conditions at: LEBZ (TALAVERA AB/BADA, ES) observed 1700 UTC 17 August 2019
Temperature: 37.0°C (99°F)
Dewpoint: 1.0°C (34°F) [RH = 10%]
Pressure (altimeter): 29.88 inches Hg (1012.0 mb)
Winds: from the SW (230 degrees) at 9 MPH (8 knots; 4.1 m/s)
Visibility: 6 or more miles (10+ km)
Ceiling: ceiling and visibility are OK
Clouds: unknown
Weather: no significant weather observed at this time

Forecast for: LEBZ (TALAVERA AB/BADA, ES)
Text: TAF LEBZ 182300Z 1900/1924 29009KT CAVOK TX33/1915Z TN16/1906Z
Forecast period: 0000 UTC 19 August 2019 to 0000 UTC 20 August 2019
Forecast type: FROM: standard forecast or significant change
Winds: from the WNW (290 degrees) at 10 MPH (9 knots; 4.6 m/s)
Visibility: 6 or more miles 10+ km)
Ceiling: unknown
Clouds: missing
Weather: no significant weather forecast for this period